sensor_id;sensor_type;location;lat;lon;timestamp;pressure;altitude;pressure_sealevel;temperature;humidity
36664;BME280;53333;51.976;20.144;2023-02-11T00:02:01;101530.59;;;3.00;65.60
36664;BME280;53333;51.976;20.144;2023-02-11T00:04:35;101529.69;;;3.03;65.45
36664;BME280;53333;51.976;20.144;2023-02-11T00:07:08;101527.97;;;3.03;65.36
36664;BME280;53333;51.976;20.144;2023-02-11T00:09:43;101520.94;;;3.05;65.43
36664;BME280;53333;51.976;20.144;2023-02-11T00:12:16;101517.44;;;3.08;65.15
36664;BME280;53333;51.976;20.144;2023-02-11T00:14:50;101516.56;;;3.20;64.97
36664;BME280;53333;51.976;20.144;2023-02-11T00:17:23;101515.66;;;3.07;64.94
36664;BME280;53333;51.976;20.144;2023-02-11T00:19:56;101501.56;;;3.06;65.05
36664;BME280;53333;51.976;20.144;2023-02-11T00:22:29;101499.81;;;3.05;65.11
36664;BME280;53333;51.976;20.144;2023-02-11T00:25:04;101495.38;;;3.04;64.94
36664;BME280;53333;51.976;20.144;2023-02-11T00:27:37;101495.38;;;3.03;64.94
36664;BME280;53333;51.976;20.144;2023-02-11T00:30:11;101480.44;;;3.02;65.01
36664;BME280;53333;51.976;20.144;2023-02-11T00:32:44;101471.59;;;3.00;65.05
36664;BME280;53333;51.976;20.144;2023-02-11T00:35:17;101457.53;;;2.98;65.07
36664;BME280;53333;51.976;20.144;2023-02-11T00:37:52;101454.00;;;2.94;65.10
36664;BME280;53333;51.976;20.144;2023-02-11T00:40:26;101446.94;;;2.91;65.23
36664;BME280;53333;51.976;20.144;2023-02-11T00:42:59;101464.53;;;2.89;65.18
36664;BME280;53333;51.976;20.144;2023-02-11T00:45:35;101464.53;;;2.86;65.17
36664;BME280;53333;51.976;20.144;2023-02-11T00:48:08;101470.66;;;2.82;65.27
36664;BME280;53333;51.976;20.144;2023-02-11T00:50:41;101471.56;;;2.81;65.31
36664;BME280;53333;51.976;20.144;2023-02-11T00:53:14;101475.06;;;2.80;65.33
36664;BME280;53333;51.976;20.144;2023-02-11T00:55:48;101461.00;;;2.78;65.54
36664;BME280;53333;51.976;20.144;2023-02-11T00:58:21;101456.59;;;2.79;65.52
36664;BME280;53333;51.976;20.144;2023-02-11T01:00:55;101451.28;;;2.77;65.30
36664;BME280;53333;51.976;20.144;2023-02-11T01:03:29;101436.38;;;2.78;65.39
36664;BME280;53333;51.976;20.144;2023-02-11T01:06:02;101440.75;;;2.77;65.31
36664;BME280;53333;51.976;20.144;2023-02-11T01:08:35;101433.72;;;2.78;65.30
36664;BME280;53333;51.976;20.144;2023-02-11T01:11:13;101423.16;;;2.79;65.26
36664;BME280;53333;51.976;20.144;2023-02-11T01:13:49;101408.22;;;2.80;65.33
36664;BME280;53333;51.976;20.144;2023-02-11T01:16:22;101398.53;;;2.80;65.17
36664;BME280;53333;51.976;20.144;2023-02-11T01:18:57;101380.06;;;2.80;65.28
36664;BME280;53333;51.976;20.144;2023-02-11T01:21:30;101379.19;;;2.80;65.27
36664;BME280;53333;51.976;20.144;2023-02-11T01:24:03;101384.47;;;2.80;65.14
36664;BME280;53333;51.976;20.144;2023-02-11T01:26:38;101369.50;;;2.79;65.42
36664;BME280;53333;51.976;20.144;2023-02-11T01:29:11;101359.81;;;2.79;65.24
36664;BME280;53333;51.976;20.144;2023-02-11T01:31:44;101355.44;;;2.78;65.38
36664;BME280;53333;51.976;20.144;2023-02-11T01:34:17;101350.16;;;2.77;65.34
36664;BME280;53333;51.976;20.144;2023-02-11T01:36:50;101361.56;;;2.77;65.18
36664;BME280;53333;51.976;20.144;2023-02-11T01:39:23;101340.47;;;2.77;65.09
36664;BME280;53333;51.976;20.144;2023-02-11T01:41:57;101351.91;;;2.76;65.18
36664;BME280;53333;51.976;20.144;2023-02-11T01:44:34;101351.00;;;2.76;65.16
36664;BME280;53333;51.976;20.144;2023-02-11T01:47:10;101341.34;;;2.76;65.06
36664;BME280;53333;51.976;20.144;2023-02-11T01:49:47;101334.31;;;2.77;65.16
36664;BME280;53333;51.976;20.144;2023-02-11T01:52:24;101339.59;;;2.78;65.15
36664;BME280;53333;51.976;20.144;2023-02-11T01:55:03;101319.34;;;2.79;65.11
36664;BME280;53333;51.976;20.144;2023-02-11T01:57:59;101327.28;;;2.82;65.01
36664;BME280;53333;51.976;20.144;2023-02-11T02:00:36;101328.16;;;2.84;64.87
36664;BME280;53333;51.976;20.144;2023-02-11T02:03:13;101342.25;;;2.84;64.80
36664;BME280;53333;51.976;20.144;2023-02-11T02:05:53;101315.84;;;2.86;64.78
36664;BME280;53333;51.976;20.144;2023-02-11T02:08:31;101305.31;;;2.87;64.59
36664;BME280;53333;51.976;20.144;2023-02-11T02:11:06;101307.94;;;2.89;64.52
36664;BME280;53333;51.976;20.144;2023-02-11T02:13:42;101302.66;;;2.90;64.52
36664;BME280;53333;51.976;20.144;2023-02-11T02:16:18;101300.03;;;2.92;64.33
36664;BME280;53333;51.976;20.144;2023-02-11T02:19:06;101285.06;;;2.89;64.42
36664;BME280;53333;51.976;20.144;2023-02-11T02:22:11;101281.56;;;2.90;64.20
36664;BME280;53333;51.976;20.144;2023-02-11T02:24:58;101265.72;;;2.87;64.20
36664;BME280;53333;51.976;20.144;2023-02-11T02:27:44;101275.38;;;2.84;64.07
36664;BME280;53333;51.976;20.144;2023-02-11T02:30:39;101271.00;;;2.87;64.03
36664;BME280;53333;51.976;20.144;2023-02-11T02:33:29;101262.16;;;2.84;64.04
36664;BME280;53333;51.976;20.144;2023-02-11T02:36:11;101254.25;;;2.82;63.97
36664;BME280;53333;51.976;20.144;2023-02-11T02:38:51;101240.19;;;2.80;64.02
36664;BME280;53333;51.976;20.144;2023-02-11T02:41:27;101236.69;;;2.80;63.90
36664;BME280;53333;51.976;20.144;2023-02-11T02:44:01;101233.13;;;2.79;63.79
36664;BME280;53333;51.976;20.144;2023-02-11T02:46:35;101239.31;;;2.80;63.81
36664;BME280;53333;51.976;20.144;2023-02-11T02:49:13;101221.72;;;2.79;63.77
36664;BME280;53333;51.976;20.144;2023-02-11T02:52:01;101212.91;;;2.78;63.72
36664;BME280;53333;51.976;20.144;2023-02-11T02:54:54;101186.53;;;2.80;63.73
36664;BME280;53333;51.976;20.144;2023-02-11T02:57:37;101190.03;;;2.76;63.73
36664;BME280;53333;51.976;20.144;2023-02-11T03:00:40;101195.31;;;2.74;63.55
36664;BME280;53333;51.976;20.144;2023-02-11T03:03:22;101201.50;;;2.71;63.51
36664;BME280;53333;51.976;20.144;2023-02-11T03:06:02;101207.63;;;2.70;63.63
36664;BME280;53333;51.976;20.144;2023-02-11T03:08:38;101211.16;;;2.68;63.62
36664;BME280;53333;51.976;20.144;2023-02-11T03:11:16;101208.50;;;2.68;63.67
36664;BME280;53333;51.976;20.144;2023-02-11T03:13:50;101206.78;;;2.70;63.58
36664;BME280;53333;51.976;20.144;2023-02-11T03:16:25;101202.38;;;2.72;63.34
36664;BME280;53333;51.976;20.144;2023-02-11T03:19:02;101187.41;;;2.74;63.35
36664;BME280;53333;51.976;20.144;2023-02-11T03:21:40;101185.66;;;2.76;63.24
36664;BME280;53333;51.976;20.144;2023-02-11T03:24:17;101176.84;;;2.80;63.22
36664;BME280;53333;51.976;20.144;2023-02-11T03:26:53;101193.56;;;2.82;63.25
36664;BME280;53333;51.976;20.144;2023-02-11T03:29:32;101183.91;;;2.86;63.15
36664;BME280;53333;51.976;20.144;2023-02-11T03:32:11;101171.56;;;2.86;62.96
36664;BME280;53333;51.976;20.144;2023-02-11T03:34:48;101173.34;;;2.87;62.97
36664;BME280;53333;51.976;20.144;2023-02-11T03:37:28;101176.84;;;2.89;63.03
36664;BME280;53333;51.976;20.144;2023-02-11T03:40:06;101168.94;;;2.93;62.92
36664;BME280;53333;51.976;20.144;2023-02-11T03:42:43;101161.00;;;2.93;62.65
36664;BME280;53333;51.976;20.144;2023-02-11T03:45:19;101171.56;;;2.96;62.70
36664;BME280;53333;51.976;20.144;2023-02-11T03:47:55;101158.38;;;2.97;62.62
36664;BME280;53333;51.976;20.144;2023-02-11T03:50:31;101142.53;;;2.97;62.46
36664;BME280;53333;51.976;20.144;2023-02-11T03:53:07;101131.06;;;2.98;62.40
36664;BME280;53333;51.976;20.144;2023-02-11T03:55:41;101128.41;;;3.00;62.46
36664;BME280;53333;51.976;20.144;2023-02-11T03:58:15;101111.72;;;2.99;62.35
36664;BME280;53333;51.976;20.144;2023-02-11T04:00:48;101110.84;;;3.00;62.15
36664;BME280;53333;51.976;20.144;2023-02-11T04:03:22;101109.06;;;2.98;62.28
36664;BME280;53333;51.976;20.144;2023-02-11T04:05:55;101120.50;;;2.95;62.14
36664;BME280;53333;51.976;20.144;2023-02-11T04:08:29;101120.53;;;2.92;62.32
36664;BME280;53333;51.976;20.144;2023-02-11T04:11:03;101126.69;;;2.88;62.24
36664;BME280;53333;51.976;20.144;2023-02-11T04:13:36;101111.72;;;2.85;62.27
36664;BME280;53333;51.976;20.144;2023-02-11T04:16:09;101108.22;;;2.83;62.29
36664;BME280;53333;51.976;20.144;2023-02-11T04:18:42;101109.09;;;2.79;62.40
36664;BME280;53333;51.976;20.144;2023-02-11T04:21:15;101099.44;;;2.77;62.42
36664;BME280;53333;51.976;20.144;2023-02-11T04:23:49;101106.50;;;2.75;62.47
36664;BME280;53333;51.976;20.144;2023-02-11T04:26:23;101091.53;;;2.70;62.46
36664;BME280;53333;51.976;20.144;2023-02-11T04:28:58;101093.31;;;2.67;62.34
36664;BME280;53333;51.976;20.144;2023-02-11T04:31:31;101076.63;;;2.63;62.49
36664;BME280;53333;51.976;20.144;2023-02-11T04:34:04;101071.34;;;2.62;62.52
36664;BME280;53333;51.976;20.144;2023-02-11T04:36:37;101062.53;;;2.61;62.42
36664;BME280;53333;51.976;20.144;2023-02-11T04:39:12;101061.66;;;2.62;62.40
36664;BME280;53333;51.976;20.144;2023-02-11T04:41:45;101054.63;;;2.63;62.40
36664;BME280;53333;51.976;20.144;2023-02-11T04:44:18;101051.97;;;2.61;62.37
36664;BME280;53333;51.976;20.144;2023-02-11T04:46:51;101055.50;;;2.62;62.45
36664;BME280;53333;51.976;20.144;2023-02-11T04:49:24;101041.44;;;2.60;62.26
36664;BME280;53333;51.976;20.144;2023-02-11T04:51:57;101047.59;;;2.59;62.31
36664;BME280;53333;51.976;20.144;2023-02-11T04:54:31;101042.34;;;2.57;62.40
36664;BME280;53333;51.976;20.144;2023-02-11T04:57:04;101035.28;;;2.59;62.35
36664;BME280;53333;51.976;20.144;2023-02-11T04:59:37;101039.69;;;2.62;62.35
36664;BME280;53333;51.976;20.144;2023-02-11T05:02:11;101032.63;;;2.65;62.28
36664;BME280;53333;51.976;20.144;2023-02-11T05:04:44;101035.28;;;2.67;62.10
36664;BME280;53333;51.976;20.144;2023-02-11T05:07:17;101025.59;;;2.67;62.09
36664;BME280;53333;51.976;20.144;2023-02-11T05:09:51;101028.22;;;2.69;61.77
36664;BME280;53333;51.976;20.144;2023-02-11T05:12:24;101014.16;;;2.71;62.11
36664;BME280;53333;51.976;20.144;2023-02-11T05:14:57;101009.75;;;2.73;61.85
36664;BME280;53333;51.976;20.144;2023-02-11T05:17:30;101005.34;;;2.72;61.95
36664;BME280;53333;51.976;20.144;2023-02-11T05:20:04;101002.69;;;2.71;61.83
36664;BME280;53333;51.976;20.144;2023-02-11T05:22:37;100993.00;;;2.79;61.68
36664;BME280;53333;51.976;20.144;2023-02-11T05:25:11;100993.94;;;2.64;61.79
36664;BME280;53333;51.976;20.144;2023-02-11T05:27:44;100979.00;;;2.63;61.80
36664;BME280;53333;51.976;20.144;2023-02-11T05:30:18;100992.16;;;2.65;61.93
36664;BME280;53333;51.976;20.144;2023-02-11T05:32:51;100997.44;;;2.66;61.89
36664;BME280;53333;51.976;20.144;2023-02-11T05:35:24;100981.66;;;2.63;61.75
36664;BME280;53333;51.976;20.144;2023-02-11T05:37:57;100979.00;;;2.62;61.71
36664;BME280;53333;51.976;20.144;2023-02-11T05:40:31;100972.84;;;2.58;61.83
36664;BME280;53333;51.976;20.144;2023-02-11T05:43:04;100981.66;;;2.59;61.73
36664;BME280;53333;51.976;20.144;2023-02-11T05:45:37;100986.03;;;2.61;61.78
36664;BME280;53333;51.976;20.144;2023-02-11T05:48:10;100975.47;;;2.60;61.90
36664;BME280;53333;51.976;20.144;2023-02-11T05:50:43;100970.22;;;2.58;61.84
36664;BME280;53333;51.976;20.144;2023-02-11T05:53:16;100971.09;;;2.59;61.90
36664;BME280;53333;51.976;20.144;2023-02-11T05:55:51;100963.19;;;2.59;61.93
36664;BME280;53333;51.976;20.144;2023-02-11T05:58:24;100957.91;;;2.62;61.93
36664;BME280;53333;51.976;20.144;2023-02-11T06:00:57;100964.03;;;2.65;61.89
36664;BME280;53333;51.976;20.144;2023-02-11T06:03:30;100958.75;;;2.67;61.85
36664;BME280;53333;51.976;20.144;2023-02-11T06:06:04;100949.94;;;2.68;61.60
36664;BME280;53333;51.976;20.144;2023-02-11T06:08:41;100948.19;;;2.71;61.62
36664;BME280;53333;51.976;20.144;2023-02-11T06:11:16;100937.63;;;2.73;61.76
36664;BME280;53333;51.976;20.144;2023-02-11T06:13:50;100942.00;;;2.74;61.72
36664;BME280;53333;51.976;20.144;2023-02-11T06:16:23;100941.13;;;2.77;61.60
36664;BME280;53333;51.976;20.144;2023-02-11T06:18:56;100944.63;;;2.82;61.59
36664;BME280;53333;51.976;20.144;2023-02-11T06:21:29;100934.06;;;2.83;61.56
36664;BME280;53333;51.976;20.144;2023-02-11T06:24:14;100939.31;;;2.85;61.47
36664;BME280;53333;51.976;20.144;2023-02-11T06:27:08;100927.00;;;2.84;61.54
36664;BME280;53333;51.976;20.144;2023-02-11T06:29:41;100920.84;;;2.86;61.54
36664;BME280;53333;51.976;20.144;2023-02-11T06:32:15;100916.41;;;2.90;61.57
36664;BME280;53333;51.976;20.144;2023-02-11T06:35:07;100917.31;;;2.92;61.54
36664;BME280;53333;51.976;20.144;2023-02-11T06:37:43;100910.25;;;2.93;61.53
36664;BME280;53333;51.976;20.144;2023-02-11T06:40:16;100907.63;;;2.94;61.63
36664;BME280;53333;51.976;20.144;2023-02-11T06:42:50;100906.69;;;2.97;61.66
36664;BME280;53333;51.976;20.144;2023-02-11T06:45:23;100905.81;;;2.99;61.73
36664;BME280;53333;51.976;20.144;2023-02-11T06:47:56;100915.50;;;3.00;61.83
36664;BME280;53333;51.976;20.144;2023-02-11T06:50:29;100909.31;;;3.03;61.66
36664;BME280;53333;51.976;20.144;2023-02-11T06:53:02;100911.06;;;3.04;61.63
36664;BME280;53333;51.976;20.144;2023-02-11T06:55:35;100911.06;;;3.07;61.57
36664;BME280;53333;51.976;20.144;2023-02-11T06:58:10;100898.72;;;3.07;61.53
36664;BME280;53333;51.976;20.144;2023-02-11T07:00:43;100887.28;;;3.12;61.76
36664;BME280;53333;51.976;20.144;2023-02-11T07:03:16;100902.19;;;3.14;61.55
36664;BME280;53333;51.976;20.144;2023-02-11T07:05:49;100896.03;;;3.17;61.54
36664;BME280;53333;51.976;20.144;2023-02-11T07:08:22;100886.34;;;3.17;61.61
36664;BME280;53333;51.976;20.144;2023-02-11T07:10:55;100888.09;;;3.20;61.52
36664;BME280;53333;51.976;20.144;2023-02-11T07:13:30;100895.13;;;3.21;61.67
36664;BME280;53333;51.976;20.144;2023-02-11T07:16:05;100896.00;;;3.21;61.64
36664;BME280;53333;51.976;20.144;2023-02-11T07:18:38;100888.06;;;3.23;61.78
36664;BME280;53333;51.976;20.144;2023-02-11T07:21:12;100879.25;;;3.25;61.83
36664;BME280;53333;51.976;20.144;2023-02-11T07:23:46;100888.03;;;3.29;61.63
36664;BME280;53333;51.976;20.144;2023-02-11T07:26:21;100884.50;;;3.27;61.64
36664;BME280;53333;51.976;20.144;2023-02-11T07:28:56;100895.09;;;3.25;61.88
36664;BME280;53333;51.976;20.144;2023-02-11T07:31:29;100885.44;;;3.24;62.04
36664;BME280;53333;51.976;20.144;2023-02-11T07:34:03;100893.34;;;3.26;61.99
36664;BME280;53333;51.976;20.144;2023-02-11T07:36:36;100895.06;;;3.27;62.14
36664;BME280;53333;51.976;20.144;2023-02-11T07:39:09;100874.00;;;3.22;62.17
36664;BME280;53333;51.976;20.144;2023-02-11T07:41:42;100880.19;;;3.18;62.21
36664;BME280;53333;51.976;20.144;2023-02-11T07:44:19;100873.16;;;3.13;62.44
36664;BME280;53333;51.976;20.144;2023-02-11T07:46:52;100877.59;;;3.11;62.69
36664;BME280;53333;51.976;20.144;2023-02-11T07:49:26;100871.44;;;3.10;62.83
36664;BME280;53333;51.976;20.144;2023-02-11T07:51:59;100877.59;;;3.11;62.87
36664;BME280;53333;51.976;20.144;2023-02-11T07:54:34;100888.16;;;3.07;63.22
36664;BME280;53333;51.976;20.144;2023-02-11T07:57:07;100882.91;;;3.03;63.36
36664;BME280;53333;51.976;20.144;2023-02-11T07:59:44;100873.28;;;2.99;63.71
36664;BME280;53333;51.976;20.144;2023-02-11T08:02:20;100880.31;;;2.95;63.91
36664;BME280;53333;51.976;20.144;2023-02-11T08:04:53;100863.63;;;2.90;64.19
36664;BME280;53333;51.976;20.144;2023-02-11T08:07:26;100868.06;;;2.86;64.38
36664;BME280;53333;51.976;20.144;2023-02-11T08:10:00;100866.31;;;2.82;64.60
36664;BME280;53333;51.976;20.144;2023-02-11T08:12:33;100868.97;;;2.82;64.79
36664;BME280;53333;51.976;20.144;2023-02-11T08:15:08;100865.44;;;2.83;65.07
36664;BME280;53333;51.976;20.144;2023-02-11T08:17:41;100850.47;;;2.87;65.11
36664;BME280;53333;51.976;20.144;2023-02-11T08:20:14;100863.66;;;2.85;65.04
36664;BME280;53333;51.976;20.144;2023-02-11T08:22:47;100861.03;;;2.84;65.42
36664;BME280;53333;51.976;20.144;2023-02-11T08:25:20;100861.94;;;2.80;65.60
36664;BME280;53333;51.976;20.144;2023-02-11T08:27:53;100855.78;;;2.79;65.77
36664;BME280;53333;51.976;20.144;2023-02-11T08:30:28;100855.78;;;2.79;66.04
36664;BME280;53333;51.976;20.144;2023-02-11T08:33:01;100857.56;;;2.77;66.06
36664;BME280;53333;51.976;20.144;2023-02-11T08:35:34;100862.84;;;2.77;66.21
36664;BME280;53333;51.976;20.144;2023-02-11T08:38:07;100856.69;;;2.77;66.44
36664;BME280;53333;51.976;20.144;2023-02-11T08:40:40;100852.28;;;2.76;66.63
36664;BME280;53333;51.976;20.144;2023-02-11T08:43:14;100859.34;;;2.77;66.68
36664;BME280;53333;51.976;20.144;2023-02-11T08:45:48;100856.69;;;2.78;66.83
36664;BME280;53333;51.976;20.144;2023-02-11T08:48:21;100855.78;;;2.79;66.68
36664;BME280;53333;51.976;20.144;2023-02-11T08:50:58;100848.75;;;2.81;66.93
36664;BME280;53333;51.976;20.144;2023-02-11T08:53:31;100841.69;;;2.86;66.95
36664;BME280;53333;51.976;20.144;2023-02-11T08:56:04;100839.03;;;2.89;67.00
36664;BME280;53333;51.976;20.144;2023-02-11T08:58:37;100830.22;;;2.94;66.89
36664;BME280;53333;51.976;20.144;2023-02-11T09:01:13;100811.66;;;2.98;67.24
36664;BME280;53333;51.976;20.144;2023-02-11T09:03:47;100814.28;;;3.04;67.11
36664;BME280;53333;51.976;20.144;2023-02-11T09:06:21;100801.03;;;3.11;67.11
36664;BME280;53333;51.976;20.144;2023-02-11T09:08:56;100799.25;;;3.13;67.27
36664;BME280;53333;51.976;20.144;2023-02-11T09:11:31;100800.13;;;3.16;67.36
36664;BME280;53333;51.976;20.144;2023-02-11T09:14:04;100793.00;;;3.23;67.25
36664;BME280;53333;51.976;20.144;2023-02-11T09:16:39;100771.88;;;3.26;67.26
36664;BME280;53333;51.976;20.144;2023-02-11T09:19:12;100755.09;;;3.30;67.20
36664;BME280;53333;51.976;20.144;2023-02-11T09:21:45;100748.91;;;3.34;67.11
36664;BME280;53333;51.976;20.144;2023-02-11T09:24:18;100739.19;;;3.35;67.16
36664;BME280;53333;51.976;20.144;2023-02-11T09:26:51;100731.25;;;3.36;67.34
36664;BME280;53333;51.976;20.144;2023-02-11T09:29:24;100736.53;;;3.39;67.27
36664;BME280;53333;51.976;20.144;2023-02-11T09:31:58;100738.25;;;3.42;67.37
36664;BME280;53333;51.976;20.144;2023-02-11T09:34:32;100728.56;;;3.41;67.36
36664;BME280;53333;51.976;20.144;2023-02-11T09:37:05;100743.56;;;3.40;67.54
36664;BME280;53333;51.976;20.144;2023-02-11T09:39:39;100736.53;;;3.38;67.52
36664;BME280;53333;51.976;20.144;2023-02-11T09:45:21;100750.66;;;3.35;67.86
36664;BME280;53333;51.976;20.144;2023-02-11T09:47:59;100748.00;;;3.37;67.77
36664;BME280;53333;51.976;20.144;2023-02-11T09:50:40;100759.41;;;3.39;67.82
36664;BME280;53333;51.976;20.144;2023-02-11T09:53:18;100759.41;;;3.39;67.88
36664;BME280;53333;51.976;20.144;2023-02-11T09:55:54;100762.97;;;3.36;67.94
36664;BME280;53333;51.976;20.144;2023-02-11T09:58:34;100762.06;;;3.37;67.89
36664;BME280;53333;51.976;20.144;2023-02-11T10:01:14;100765.59;;;3.36;68.06
36664;BME280;53333;51.976;20.144;2023-02-11T10:04:02;100780.56;;;3.36;67.98
36664;BME280;53333;51.976;20.144;2023-02-11T10:06:41;100764.75;;;3.34;68.40
36664;BME280;53333;51.976;20.144;2023-02-11T10:09:35;100743.56;;;3.39;68.07
36664;BME280;53333;51.976;20.144;2023-02-11T10:12:25;100752.38;;;3.36;68.35
36664;BME280;53333;51.976;20.144;2023-02-11T10:15:12;100739.19;;;3.35;68.57
36664;BME280;53333;51.976;20.144;2023-02-11T10:18:00;100726.91;;;3.35;68.62
36664;BME280;53333;51.976;20.144;2023-02-11T10:20:47;100737.47;;;3.34;68.88
36664;BME280;53333;51.976;20.144;2023-02-11T10:23:30;100735.72;;;3.33;68.99
36664;BME280;53333;51.976;20.144;2023-02-11T10:26:11;100719.03;;;3.29;69.18
36664;BME280;53333;51.976;20.144;2023-02-11T10:28:46;100749.84;;;3.25;69.35
36664;BME280;53333;51.976;20.144;2023-02-11T10:31:23;100765.69;;;3.25;69.36
36664;BME280;53333;51.976;20.144;2023-02-11T10:34:00;100752.50;;;3.25;69.55
36664;BME280;53333;51.976;20.144;2023-02-11T10:36:38;100749.84;;;3.25;69.56
36664;BME280;53333;51.976;20.144;2023-02-11T10:39:15;100728.72;;;3.25;69.71
36664;BME280;53333;51.976;20.144;2023-02-11T10:41:52;100726.06;;;3.27;69.79
36664;BME280;53333;51.976;20.144;2023-02-11T10:44:29;100731.34;;;3.28;69.92
36664;BME280;53333;51.976;20.144;2023-02-11T10:47:08;100715.50;;;3.28;69.88
36664;BME280;53333;51.976;20.144;2023-02-11T10:49:45;100697.91;;;3.29;69.94
36664;BME280;53333;51.976;20.144;2023-02-11T10:52:23;100695.22;;;3.32;70.06
36664;BME280;53333;51.976;20.144;2023-02-11T10:55:03;100702.22;;;3.35;70.07
36664;BME280;53333;51.976;20.144;2023-02-11T10:57:37;100696.06;;;3.37;70.17
36664;BME280;53333;51.976;20.144;2023-02-11T11:00:32;100691.56;;;3.44;70.05
36664;BME280;53333;51.976;20.144;2023-02-11T11:03:16;100694.22;;;3.44;70.11
36664;BME280;53333;51.976;20.144;2023-02-11T11:05:51;100689.78;;;3.44;70.06
36664;BME280;53333;51.976;20.144;2023-02-11T11:08:39;100684.44;;;3.51;70.02
36664;BME280;53333;51.976;20.144;2023-02-11T11:11:14;100678.28;;;3.50;70.13
36664;BME280;53333;51.976;20.144;2023-02-11T11:13:54;100677.38;;;3.54;70.11
36664;BME280;53333;51.976;20.144;2023-02-11T11:16:29;100656.22;;;3.56;70.07
36664;BME280;53333;51.976;20.144;2023-02-11T11:19:18;100657.03;;;3.62;70.13
36664;BME280;53333;51.976;20.144;2023-02-11T11:21:53;100634.13;;;3.61;70.25
36664;BME280;53333;51.976;20.144;2023-02-11T11:24:31;100628.78;;;3.68;70.36
36664;BME280;53333;51.976;20.144;2023-02-11T11:27:16;100644.53;;;3.75;70.18
36664;BME280;53333;51.976;20.144;2023-02-11T11:29:52;100672.69;;;3.75;70.09
36664;BME280;53333;51.976;20.144;2023-02-11T11:32:27;100652.44;;;3.77;70.20
36664;BME280;53333;51.976;20.144;2023-02-11T11:35:16;100676.22;;;3.78;70.31
36664;BME280;53333;51.976;20.144;2023-02-11T11:37:54;100685.88;;;3.78;70.24
36664;BME280;53333;51.976;20.144;2023-02-11T11:40:34;100696.44;;;3.79;70.38
36664;BME280;53333;51.976;20.144;2023-02-11T11:43:17;100708.78;;;3.80;70.19
36664;BME280;53333;51.976;20.144;2023-02-11T11:45:55;100712.28;;;3.79;70.34
36664;BME280;53333;51.976;20.144;2023-02-11T11:48:31;100710.53;;;3.80;70.48
36664;BME280;53333;51.976;20.144;2023-02-11T11:51:09;100720.22;;;3.79;70.50
36664;BME280;53333;51.976;20.144;2023-02-11T11:53:47;100713.22;;;3.78;70.54
36664;BME280;53333;51.976;20.144;2023-02-11T11:56:26;100708.81;;;3.77;70.53
36664;BME280;53333;51.976;20.144;2023-02-11T11:59:00;100708.81;;;3.77;70.54
36664;BME280;53333;51.976;20.144;2023-02-11T12:01:44;100707.03;;;3.78;70.61
36664;BME280;53333;51.976;20.144;2023-02-11T12:04:31;100700.84;;;3.79;70.73
36664;BME280;53333;51.976;20.144;2023-02-11T12:07:17;100699.06;;;3.79;70.79
36664;BME280;53333;51.976;20.144;2023-02-11T12:13:15;100677.06;;;3.80;70.90
36664;BME280;53333;51.976;20.144;2023-02-11T12:15:58;100676.19;;;3.80;70.93
36664;BME280;53333;51.976;20.144;2023-02-11T12:18:48;100673.53;;;3.80;70.99
36664;BME280;53333;51.976;20.144;2023-02-11T12:21:36;100678.81;;;3.81;71.09
36664;BME280;53333;51.976;20.144;2023-02-11T12:24:26;100683.19;;;3.81;71.33
36664;BME280;53333;51.976;20.144;2023-02-11T12:27:08;100675.28;;;3.81;71.44
36664;BME280;53333;51.976;20.144;2023-02-11T12:29:57;100668.19;;;3.85;71.43
36664;BME280;53333;51.976;20.144;2023-02-11T12:32:36;100669.94;;;3.84;71.58
36664;BME280;53333;51.976;20.144;2023-02-11T12:35:26;100676.06;;;3.88;71.68
36664;BME280;53333;51.976;20.144;2023-02-11T12:38:27;100663.69;;;3.93;71.52
36664;BME280;53333;51.976;20.144;2023-02-11T12:41:21;100660.09;;;3.95;71.79
36664;BME280;53333;51.976;20.144;2023-02-11T12:44:24;100651.22;;;4.01;71.48
36664;BME280;53333;51.976;20.144;2023-02-11T12:47:10;100644.06;;;4.09;71.55
36664;BME280;53333;51.976;20.144;2023-02-11T12:49:56;100643.09;;;4.16;71.53
36664;BME280;53333;51.976;20.144;2023-02-11T12:52:43;100640.38;;;4.19;71.47
36664;BME280;53333;51.976;20.144;2023-02-11T12:55:22;100642.97;;;4.23;71.49
36664;BME280;53333;51.976;20.144;2023-02-11T12:57:57;100650.88;;;4.26;71.57
36664;BME280;53333;51.976;20.144;2023-02-11T13:00:39;100632.31;;;4.27;71.57
36664;BME280;53333;51.976;20.144;2023-02-11T13:03:21;100646.47;;;4.26;71.56
36664;BME280;53333;51.976;20.144;2023-02-11T13:05:59;100647.34;;;4.27;71.67
36664;BME280;53333;51.976;20.144;2023-02-11T13:08:36;100635.88;;;4.28;71.62
36664;BME280;53333;51.976;20.144;2023-02-11T13:11:12;100642.00;;;4.30;71.67
36664;BME280;53333;51.976;20.144;2023-02-11T13:13:51;100633.19;;;4.31;71.66
36664;BME280;53333;51.976;20.144;2023-02-11T13:16:33;100648.06;;;4.36;71.59
36664;BME280;53333;51.976;20.144;2023-02-11T13:19:17;100655.94;;;4.40;71.74
36664;BME280;53333;51.976;20.144;2023-02-11T13:22:03;100663.88;;;4.40;71.67
36664;BME280;53333;51.976;20.144;2023-02-11T13:24:42;100654.16;;;4.40;71.46
36664;BME280;53333;51.976;20.144;2023-02-11T13:27:23;100655.94;;;4.41;71.74
36664;BME280;53333;51.976;20.144;2023-02-11T13:30:22;100663.81;;;4.44;71.65
36664;BME280;53333;51.976;20.144;2023-02-11T13:33:16;100660.25;;;4.47;71.49
36664;BME280;53333;51.976;20.144;2023-02-11T13:36:19;100657.63;;;4.47;71.55
36664;BME280;53333;51.976;20.144;2023-02-11T13:38:56;100656.75;;;4.45;71.52
36664;BME280;53333;51.976;20.144;2023-02-11T13:41:38;100655.84;;;4.47;71.72
36664;BME280;53333;51.976;20.144;2023-02-11T13:44:21;100670.81;;;4.48;71.57
36664;BME280;53333;51.976;20.144;2023-02-11T13:46:59;100666.41;;;4.49;71.57
36664;BME280;53333;51.976;20.144;2023-02-11T13:49:36;100650.47;;;4.52;71.74